sensor_id;sensor_type;location;lat;lon;timestamp;P1;durP1;ratioP1;P2;durP2;ratioP2
9906;SDS011;4992;51.628;6.664;2024-02-21T00:02:19;25.20;;;13.40;;
9906;SDS011;4992;51.628;6.664;2024-02-21T00:04:45;22.00;;;13.25;;
9906;SDS011;4992;51.628;6.664;2024-02-21T00:07:11;24.60;;;12.00;;
9906;SDS011;4992;51.628;6.664;2024-02-21T00:09:37;27.80;;;13.17;;
9906;SDS011;4992;51.628;6.664;2024-02-21T00:12:03;25.97;;;13.60;;
9906;SDS011;4992;51.628;6.664;2024-02-21T00:14:30;21.77;;;12.57;;
9906;SDS011;4992;51.628;6.664;2024-02-21T00:16:56;23.23;;;13.37;;
9906;SDS011;4992;51.628;6.664;2024-02-21T00:19:22;23.83;;;14.73;;
9906;SDS011;4992;51.628;6.664;2024-02-21T00:21:48;26.58;;;14.10;;
9906;SDS011;4992;51.628;6.664;2024-02-21T00:24:14;24.25;;;13.82;;
9906;SDS011;4992;51.628;6.664;2024-02-21T00:26:39;24.42;;;13.95;;
9906;SDS011;4992;51.628;6.664;2024-02-21T00:29:05;28.38;;;14.60;;
9906;SDS011;4992;51.628;6.664;2024-02-21T00:31:31;24.67;;;13.45;;
9906;SDS011;4992;51.628;6.664;2024-02-21T00:33:57;26.75;;;13.23;;
9906;SDS011;4992;51.628;6.664;2024-02-21T00:36:23;25.08;;;13.90;;
9906;SDS011;4992;51.628;6.664;2024-02-21T00:38:49;22.67;;;13.23;;
9906;SDS011;4992;51.628;6.664;2024-02-21T00:41:15;27.42;;;13.40;;
9906;SDS011;4992;51.628;6.664;2024-02-21T00:43:41;31.88;;;13.68;;
9906;SDS011;4992;51.628;6.664;2024-02-21T00:46:07;24.77;;;13.82;;
9906;SDS011;4992;51.628;6.664;2024-02-21T00:48:33;30.67;;;14.73;;
9906;SDS011;4992;51.628;6.664;2024-02-21T00:51:00;27.65;;;14.18;;
9906;SDS011;4992;51.628;6.664;2024-02-21T00:53:26;25.55;;;13.77;;
9906;SDS011;4992;51.628;6.664;2024-02-21T00:55:52;24.63;;;12.93;;
9906;SDS011;4992;51.628;6.664;2024-02-21T00:58:18;28.40;;;13.53;;
9906;SDS011;4992;51.628;6.664;2024-02-21T01:00:44;23.80;;;12.90;;
9906;SDS011;4992;51.628;6.664;2024-02-21T01:03:09;21.93;;;12.43;;
9906;SDS011;4992;51.628;6.664;2024-02-21T01:05:35;29.45;;;14.15;;
9906;SDS011;4992;51.628;6.664;2024-02-21T01:08:01;24.37;;;13.37;;
9906;SDS011;4992;51.628;6.664;2024-02-21T01:10:27;23.20;;;12.70;;
9906;SDS011;4992;51.628;6.664;2024-02-21T01:12:53;27.10;;;12.75;;
9906;SDS011;4992;51.628;6.664;2024-02-21T01:15:19;25.08;;;12.80;;
9906;SDS011;4992;51.628;6.664;2024-02-21T01:17:45;20.83;;;12.57;;
9906;SDS011;4992;51.628;6.664;2024-02-21T01:20:11;23.23;;;12.53;;
9906;SDS011;4992;51.628;6.664;2024-02-21T01:22:37;22.88;;;12.75;;
9906;SDS011;4992;51.628;6.664;2024-02-21T01:25:03;21.37;;;12.27;;
9906;SDS011;4992;51.628;6.664;2024-02-21T01:27:29;22.23;;;13.70;;
9906;SDS011;4992;51.628;6.664;2024-02-21T01:29:55;22.97;;;12.83;;
9906;SDS011;4992;51.628;6.664;2024-02-21T01:32:21;22.10;;;12.63;;
9906;SDS011;4992;51.628;6.664;2024-02-21T01:34:49;20.70;;;13.00;;
9906;SDS011;4992;51.628;6.664;2024-02-21T01:37:15;21.47;;;12.70;;
9906;SDS011;4992;51.628;6.664;2024-02-21T01:39:41;24.87;;;13.20;;
9906;SDS011;4992;51.628;6.664;2024-02-21T01:42:07;24.80;;;13.07;;
9906;SDS011;4992;51.628;6.664;2024-02-21T01:44:34;21.40;;;12.97;;
9906;SDS011;4992;51.628;6.664;2024-02-21T01:47:01;25.15;;;14.07;;
9906;SDS011;4992;51.628;6.664;2024-02-21T01:49:27;21.67;;;13.63;;
9906;SDS011;4992;51.628;6.664;2024-02-21T01:51:53;27.37;;;13.67;;
9906;SDS011;4992;51.628;6.664;2024-02-21T01:54:19;27.30;;;14.13;;
9906;SDS011;4992;51.628;6.664;2024-02-21T01:56:46;23.40;;;13.60;;
9906;SDS011;4992;51.628;6.664;2024-02-21T01:59:12;26.00;;;14.63;;
9906;SDS011;4992;51.628;6.664;2024-02-21T02:01:39;28.17;;;13.85;;
9906;SDS011;4992;51.628;6.664;2024-02-21T02:04:05;24.02;;;13.68;;
9906;SDS011;4992;51.628;6.664;2024-02-21T02:06:31;23.00;;;13.47;;
9906;SDS011;4992;51.628;6.664;2024-02-21T02:08:57;23.20;;;12.20;;
9906;SDS011;4992;51.628;6.664;2024-02-21T02:11:23;22.60;;;13.30;;
9906;SDS011;4992;51.628;6.664;2024-02-21T02:13:49;27.23;;;13.67;;
9906;SDS011;4992;51.628;6.664;2024-02-21T02:16:15;22.25;;;12.93;;
9906;SDS011;4992;51.628;6.664;2024-02-21T02:18:41;22.37;;;12.33;;
9906;SDS011;4992;51.628;6.664;2024-02-21T02:21:10;20.17;;;13.00;;
9906;SDS011;4992;51.628;6.664;2024-02-21T02:23:36;21.90;;;12.67;;
9906;SDS011;4992;51.628;6.664;2024-02-21T02:26:02;18.57;;;12.43;;
9906;SDS011;4992;51.628;6.664;2024-02-21T02:28:28;25.33;;;12.07;;
9906;SDS011;4992;51.628;6.664;2024-02-21T02:30:54;19.73;;;11.13;;
9906;SDS011;4992;51.628;6.664;2024-02-21T02:33:20;21.53;;;12.73;;
9906;SDS011;4992;51.628;6.664;2024-02-21T02:35:46;17.27;;;11.10;;
9906;SDS011;4992;51.628;6.664;2024-02-21T02:38:12;19.20;;;12.05;;
9906;SDS011;4992;51.628;6.664;2024-02-21T02:40:38;18.20;;;11.73;;
9906;SDS011;4992;51.628;6.664;2024-02-21T02:43:05;18.10;;;11.23;;
9906;SDS011;4992;51.628;6.664;2024-02-21T02:45:31;18.40;;;11.23;;
9906;SDS011;4992;51.628;6.664;2024-02-21T02:47:57;25.17;;;11.43;;
9906;SDS011;4992;51.628;6.664;2024-02-21T02:50:24;19.88;;;11.25;;
9906;SDS011;4992;51.628;6.664;2024-02-21T02:52:50;17.53;;;10.47;;
9906;SDS011;4992;51.628;6.664;2024-02-21T02:55:16;19.47;;;10.30;;
9906;SDS011;4992;51.628;6.664;2024-02-21T02:57:42;18.40;;;11.30;;
9906;SDS011;4992;51.628;6.664;2024-02-21T03:00:09;20.17;;;11.77;;
9906;SDS011;4992;51.628;6.664;2024-02-21T03:02:35;19.83;;;10.13;;
9906;SDS011;4992;51.628;6.664;2024-02-21T03:05:02;22.90;;;10.70;;
9906;SDS011;4992;51.628;6.664;2024-02-21T03:07:36;18.63;;;10.15;;
9906;SDS011;4992;51.628;6.664;2024-02-21T03:10:02;16.27;;;10.77;;
9906;SDS011;4992;51.628;6.664;2024-02-21T03:12:28;19.47;;;9.87;;
9906;SDS011;4992;51.628;6.664;2024-02-21T03:14:54;20.33;;;10.60;;
9906;SDS011;4992;51.628;6.664;2024-02-21T03:17:20;17.70;;;10.13;;
9906;SDS011;4992;51.628;6.664;2024-02-21T03:19:46;22.43;;;11.50;;
9906;SDS011;4992;51.628;6.664;2024-02-21T03:22:13;15.57;;;10.23;;
9906;SDS011;4992;51.628;6.664;2024-02-21T03:24:39;19.63;;;10.93;;
9906;SDS011;4992;51.628;6.664;2024-02-21T03:27:05;18.58;;;10.20;;
9906;SDS011;4992;51.628;6.664;2024-02-21T03:29:31;16.23;;;10.10;;
9906;SDS011;4992;51.628;6.664;2024-02-21T03:31:57;15.30;;;9.83;;
9906;SDS011;4992;51.628;6.664;2024-02-21T03:34:23;16.30;;;9.67;;
9906;SDS011;4992;51.628;6.664;2024-02-21T03:36:49;15.85;;;9.48;;
9906;SDS011;4992;51.628;6.664;2024-02-21T03:39:15;16.25;;;10.70;;
9906;SDS011;4992;51.628;6.664;2024-02-21T03:41:41;20.63;;;9.70;;
9906;SDS011;4992;51.628;6.664;2024-02-21T03:44:08;21.30;;;9.70;;
9906;SDS011;4992;51.628;6.664;2024-02-21T03:46:34;16.42;;;9.70;;
9906;SDS011;4992;51.628;6.664;2024-02-21T03:49:00;16.38;;;10.15;;
9906;SDS011;4992;51.628;6.664;2024-02-21T03:51:26;13.50;;;9.73;;
9906;SDS011;4992;51.628;6.664;2024-02-21T03:53:52;20.27;;;9.55;;
9906;SDS011;4992;51.628;6.664;2024-02-21T03:56:18;15.63;;;9.37;;
9906;SDS011;4992;51.628;6.664;2024-02-21T03:58:44;17.55;;;10.02;;
9906;SDS011;4992;51.628;6.664;2024-02-21T04:01:10;19.55;;;10.02;;
9906;SDS011;4992;51.628;6.664;2024-02-21T04:03:36;16.98;;;9.50;;
9906;SDS011;4992;51.628;6.664;2024-02-21T04:06:01;14.73;;;9.32;;
9906;SDS011;4992;51.628;6.664;2024-02-21T04:08:27;16.55;;;8.95;;
9906;SDS011;4992;51.628;6.664;2024-02-21T04:10:53;18.83;;;9.20;;
9906;SDS011;4992;51.628;6.664;2024-02-21T04:13:19;15.20;;;8.98;;
9906;SDS011;4992;51.628;6.664;2024-02-21T04:15:47;11.90;;;8.50;;
9906;SDS011;4992;51.628;6.664;2024-02-21T04:18:13;18.10;;;8.70;;
9906;SDS011;4992;51.628;6.664;2024-02-21T04:20:40;13.57;;;7.77;;
9906;SDS011;4992;51.628;6.664;2024-02-21T04:23:06;11.20;;;8.47;;
9906;SDS011;4992;51.628;6.664;2024-02-21T04:25:32;18.10;;;8.45;;
9906;SDS011;4992;51.628;6.664;2024-02-21T04:27:58;13.52;;;7.60;;
9906;SDS011;4992;51.628;6.664;2024-02-21T04:30:23;15.20;;;8.38;;
9906;SDS011;4992;51.628;6.664;2024-02-21T04:32:49;12.93;;;7.97;;
9906;SDS011;4992;51.628;6.664;2024-02-21T04:35:16;11.27;;;7.23;;
9906;SDS011;4992;51.628;6.664;2024-02-21T04:37:42;15.87;;;8.37;;
9906;SDS011;4992;51.628;6.664;2024-02-21T04:40:08;11.73;;;7.55;;
9906;SDS011;4992;51.628;6.664;2024-02-21T04:42:34;13.43;;;8.10;;
9906;SDS011;4992;51.628;6.664;2024-02-21T04:45:00;17.27;;;7.50;;
9906;SDS011;4992;51.628;6.664;2024-02-21T04:47:27;13.37;;;7.57;;
9906;SDS011;4992;51.628;6.664;2024-02-21T04:49:53;14.32;;;7.80;;
9906;SDS011;4992;51.628;6.664;2024-02-21T04:52:19;12.00;;;7.50;;
9906;SDS011;4992;51.628;6.664;2024-02-21T04:54:45;12.20;;;6.90;;
9906;SDS011;4992;51.628;6.664;2024-02-21T04:57:11;11.27;;;7.30;;
9906;SDS011;4992;51.628;6.664;2024-02-21T04:59:41;11.70;;;7.40;;
9906;SDS011;4992;51.628;6.664;2024-02-21T05:02:07;14.10;;;6.50;;
9906;SDS011;4992;51.628;6.664;2024-02-21T05:04:33;11.53;;;7.07;;
9906;SDS011;4992;51.628;6.664;2024-02-21T05:07:00;13.47;;;7.47;;
9906;SDS011;4992;51.628;6.664;2024-02-21T05:09:26;13.50;;;7.43;;
9906;SDS011;4992;51.628;6.664;2024-02-21T05:11:52;13.43;;;7.43;;
9906;SDS011;4992;51.628;6.664;2024-02-21T05:14:18;13.20;;;6.77;;
9906;SDS011;4992;51.628;6.664;2024-02-21T05:16:44;11.10;;;7.13;;
9906;SDS011;4992;51.628;6.664;2024-02-21T05:19:10;12.35;;;6.90;;
9906;SDS011;4992;51.628;6.664;2024-02-21T05:21:35;14.30;;;6.28;;
9906;SDS011;4992;51.628;6.664;2024-02-21T05:24:01;11.77;;;6.73;;
9906;SDS011;4992;51.628;6.664;2024-02-21T05:26:29;11.53;;;6.53;;
9906;SDS011;4992;51.628;6.664;2024-02-21T05:28:55;10.67;;;5.90;;
9906;SDS011;4992;51.628;6.664;2024-02-21T05:31:20;17.53;;;6.60;;
9906;SDS011;4992;51.628;6.664;2024-02-21T05:33:47;10.65;;;5.97;;
9906;SDS011;4992;51.628;6.664;2024-02-21T05:36:13;11.63;;;6.10;;
9906;SDS011;4992;51.628;6.664;2024-02-21T05:38:39;13.97;;;6.53;;
9906;SDS011;4992;51.628;6.664;2024-02-21T05:41:05;14.03;;;6.53;;
9906;SDS011;4992;51.628;6.664;2024-02-21T05:43:31;8.53;;;5.60;;
9906;SDS011;4992;51.628;6.664;2024-02-21T05:45:57;10.10;;;6.20;;
9906;SDS011;4992;51.628;6.664;2024-02-21T05:48:23;12.37;;;6.17;;
9906;SDS011;4992;51.628;6.664;2024-02-21T05:50:49;12.10;;;6.17;;
9906;SDS011;4992;51.628;6.664;2024-02-21T05:53:16;14.20;;;7.27;;
9906;SDS011;4992;51.628;6.664;2024-02-21T05:55:42;11.07;;;6.37;;
9906;SDS011;4992;51.628;6.664;2024-02-21T05:58:08;9.87;;;6.17;;
9906;SDS011;4992;51.628;6.664;2024-02-21T06:00:38;13.93;;;6.10;;
9906;SDS011;4992;51.628;6.664;2024-02-21T06:03:04;13.13;;;6.77;;
9906;SDS011;4992;51.628;6.664;2024-02-21T06:05:30;10.07;;;5.93;;
9906;SDS011;4992;51.628;6.664;2024-02-21T06:07:56;17.50;;;6.30;;
9906;SDS011;4992;51.628;6.664;2024-02-21T06:10:22;11.67;;;6.37;;
9906;SDS011;4992;51.628;6.664;2024-02-21T06:12:48;13.03;;;6.37;;
9906;SDS011;4992;51.628;6.664;2024-02-21T06:15:14;11.27;;;6.27;;
9906;SDS011;4992;51.628;6.664;2024-02-21T06:17:40;13.13;;;6.73;;
9906;SDS011;4992;51.628;6.664;2024-02-21T06:20:06;13.23;;;6.73;;
9906;SDS011;4992;51.628;6.664;2024-02-21T06:22:32;15.47;;;6.40;;
9906;SDS011;4992;51.628;6.664;2024-02-21T06:24:59;12.90;;;7.37;;
9906;SDS011;4992;51.628;6.664;2024-02-21T06:27:24;12.50;;;6.53;;
9906;SDS011;4992;51.628;6.664;2024-02-21T06:29:50;12.77;;;6.50;;
9906;SDS011;4992;51.628;6.664;2024-02-21T06:32:16;10.30;;;6.13;;
9906;SDS011;4992;51.628;6.664;2024-02-21T06:34:42;14.20;;;6.77;;
9906;SDS011;4992;51.628;6.664;2024-02-21T06:37:08;12.37;;;6.07;;
9906;SDS011;4992;51.628;6.664;2024-02-21T06:39:34;14.63;;;6.20;;
9906;SDS011;4992;51.628;6.664;2024-02-21T06:42:02;10.90;;;6.07;;
9906;SDS011;4992;51.628;6.664;2024-02-21T06:44:29;9.90;;;5.83;;
9906;SDS011;4992;51.628;6.664;2024-02-21T06:46:55;12.23;;;6.47;;
9906;SDS011;4992;51.628;6.664;2024-02-21T06:49:20;13.00;;;6.33;;
9906;SDS011;4992;51.628;6.664;2024-02-21T06:51:46;9.40;;;5.90;;
9906;SDS011;4992;51.628;6.664;2024-02-21T06:54:12;13.37;;;6.37;;
9906;SDS011;4992;51.628;6.664;2024-02-21T06:56:40;11.23;;;6.30;;
9906;SDS011;4992;51.628;6.664;2024-02-21T06:59:06;12.17;;;5.93;;
9906;SDS011;4992;51.628;6.664;2024-02-21T07:01:32;11.67;;;6.13;;
9906;SDS011;4992;51.628;6.664;2024-02-21T07:03:58;13.20;;;6.27;;
9906;SDS011;4992;51.628;6.664;2024-02-21T07:06:24;11.83;;;6.70;;
9906;SDS011;4992;51.628;6.664;2024-02-21T07:08:50;11.57;;;6.77;;
9906;SDS011;4992;51.628;6.664;2024-02-21T07:11:16;12.27;;;6.63;;
9906;SDS011;4992;51.628;6.664;2024-02-21T07:13:42;15.23;;;6.78;;
9906;SDS011;4992;51.628;6.664;2024-02-21T07:16:08;15.87;;;7.43;;
9906;SDS011;4992;51.628;6.664;2024-02-21T07:18:34;12.85;;;7.28;;
9906;SDS011;4992;51.628;6.664;2024-02-21T07:21:00;19.33;;;7.43;;
9906;SDS011;4992;51.628;6.664;2024-02-21T07:23:26;16.37;;;8.47;;
9906;SDS011;4992;51.628;6.664;2024-02-21T07:25:52;17.58;;;8.50;;
9906;SDS011;4992;51.628;6.664;2024-02-21T07:28:18;15.20;;;7.57;;
9906;SDS011;4992;51.628;6.664;2024-02-21T07:30:44;13.23;;;7.07;;
9906;SDS011;4992;51.628;6.664;2024-02-21T07:33:10;15.20;;;7.77;;
9906;SDS011;4992;51.628;6.664;2024-02-21T07:35:36;13.80;;;7.17;;
9906;SDS011;4992;51.628;6.664;2024-02-21T07:38:07;13.63;;;6.87;;
9906;SDS011;4992;51.628;6.664;2024-02-21T07:40:37;10.47;;;6.70;;
9906;SDS011;4992;51.628;6.664;2024-02-21T07:43:03;19.00;;;8.17;;
9906;SDS011;4992;51.628;6.664;2024-02-21T07:45:29;15.47;;;8.10;;
9906;SDS011;4992;51.628;6.664;2024-02-21T07:47:55;12.90;;;6.50;;
9906;SDS011;4992;51.628;6.664;2024-02-21T07:50:20;18.77;;;7.83;;
9906;SDS011;4992;51.628;6.664;2024-02-21T07:52:46;12.33;;;6.97;;
9906;SDS011;4992;51.628;6.664;2024-02-21T07:55:12;11.37;;;7.07;;
9906;SDS011;4992;51.628;6.664;2024-02-21T07:57:38;14.97;;;7.70;;
9906;SDS011;4992;51.628;6.664;2024-02-21T08:00:04;13.10;;;6.77;;
9906;SDS011;4992;51.628;6.664;2024-02-21T08:02:30;12.27;;;7.00;;
9906;SDS011;4992;51.628;6.664;2024-02-21T08:04:56;12.87;;;6.90;;
9906;SDS011;4992;51.628;6.664;2024-02-21T08:07:22;12.23;;;6.57;;
9906;SDS011;4992;51.628;6.664;2024-02-21T08:09:48;9.70;;;6.37;;
9906;SDS011;4992;51.628;6.664;2024-02-21T08:12:14;11.60;;;6.38;;
9906;SDS011;4992;51.628;6.664;2024-02-21T08:14:40;12.30;;;6.28;;
9906;SDS011;4992;51.628;6.664;2024-02-21T08:17:06;13.30;;;6.73;;
9906;SDS011;4992;51.628;6.664;2024-02-21T08:19:32;9.63;;;5.70;;
9906;SDS011;4992;51.628;6.664;2024-02-21T08:21:58;10.77;;;6.13;;
9906;SDS011;4992;51.628;6.664;2024-02-21T08:24:24;8.53;;;5.83;;
9906;SDS011;4992;51.628;6.664;2024-02-21T08:26:50;12.67;;;5.90;;
9906;SDS011;4992;51.628;6.664;2024-02-21T08:29:16;9.98;;;6.00;;
9906;SDS011;4992;51.628;6.664;2024-02-21T08:31:42;10.57;;;5.43;;
9906;SDS011;4992;51.628;6.664;2024-02-21T08:34:08;12.45;;;5.85;;
9906;SDS011;4992;51.628;6.664;2024-02-21T08:36:34;8.77;;;5.07;;
9906;SDS011;4992;51.628;6.664;2024-02-21T08:39:00;8.07;;;4.78;;
9906;SDS011;4992;51.628;6.664;2024-02-21T08:41:30;11.38;;;4.80;;
9906;SDS011;4992;51.628;6.664;2024-02-21T08:43:56;10.65;;;4.45;;
9906;SDS011;4992;51.628;6.664;2024-02-21T08:46:22;8.93;;;4.80;;
9906;SDS011;4992;51.628;6.664;2024-02-21T08:48:49;9.23;;;4.75;;
9906;SDS011;4992;51.628;6.664;2024-02-21T08:51:16;8.70;;;4.32;;
9906;SDS011;4992;51.628;6.664;2024-02-21T08:53:42;7.57;;;3.95;;
9906;SDS011;4992;51.628;6.664;2024-02-21T08:56:08;9.02;;;4.15;;
9906;SDS011;4992;51.628;6.664;2024-02-21T08:58:34;8.13;;;4.53;;
9906;SDS011;4992;51.628;6.664;2024-02-21T09:01:01;7.50;;;3.67;;
9906;SDS011;4992;51.628;6.664;2024-02-21T09:03:28;10.20;;;4.32;;
9906;SDS011;4992;51.628;6.664;2024-02-21T09:05:54;10.00;;;4.13;;
9906;SDS011;4992;51.628;6.664;2024-02-21T09:08:20;7.75;;;3.70;;
9906;SDS011;4992;51.628;6.664;2024-02-21T09:10:47;9.27;;;4.37;;
9906;SDS011;4992;51.628;6.664;2024-02-21T09:13:13;9.95;;;5.38;;
9906;SDS011;4992;51.628;6.664;2024-02-21T09:15:38;10.65;;;4.72;;
9906;SDS011;4992;51.628;6.664;2024-02-21T09:18:04;7.40;;;4.63;;
9906;SDS011;4992;51.628;6.664;2024-02-21T09:20:31;10.90;;;5.28;;
9906;SDS011;4992;51.628;6.664;2024-02-21T09:22:57;13.82;;;4.88;;
9906;SDS011;4992;51.628;6.664;2024-02-21T09:25:23;11.25;;;5.43;;
9906;SDS011;4992;51.628;6.664;2024-02-21T09:27:49;14.00;;;5.47;;
9906;SDS011;4992;51.628;6.664;2024-02-21T09:30:17;12.07;;;4.80;;
9906;SDS011;4992;51.628;6.664;2024-02-21T09:32:44;9.63;;;3.83;;
9906;SDS011;4992;51.628;6.664;2024-02-21T09:35:10;9.02;;;3.85;;
9906;SDS011;4992;51.628;6.664;2024-02-21T09:37:37;9.10;;;4.13;;
9906;SDS011;4992;51.628;6.664;2024-02-21T09:40:03;10.15;;;4.72;;
9906;SDS011;4992;51.628;6.664;2024-02-21T09:42:39;9.45;;;4.30;;
9906;SDS011;4992;51.628;6.664;2024-02-21T09:45:21;8.93;;;4.38;;
9906;SDS011;4992;51.628;6.664;2024-02-21T09:47:54;8.55;;;4.22;;
9906;SDS011;4992;51.628;6.664;2024-02-21T09:50:23;10.68;;;4.45;;
9906;SDS011;4992;51.628;6.664;2024-02-21T09:52:50;7.43;;;4.13;;
9906;SDS011;4992;51.628;6.664;2024-02-21T09:55:17;12.02;;;5.05;;
9906;SDS011;4992;51.628;6.664;2024-02-21T09:57:43;9.57;;;4.63;;
9906;SDS011;4992;51.628;6.664;2024-02-21T10:00:10;10.00;;;3.83;;
9906;SDS011;4992;51.628;6.664;2024-02-21T10:02:36;11.17;;;4.47;;
9906;SDS011;4992;51.628;6.664;2024-02-21T10:05:02;10.20;;;5.23;;
9906;SDS011;4992;51.628;6.664;2024-02-21T10:07:30;8.25;;;4.30;;
9906;SDS011;4992;51.628;6.664;2024-02-21T10:10:01;8.20;;;4.30;;
9906;SDS011;4992;51.628;6.664;2024-02-21T10:12:27;9.97;;;4.37;;
9906;SDS011;4992;51.628;6.664;2024-02-21T10:15:02;13.60;;;4.77;;
9906;SDS011;4992;51.628;6.664;2024-02-21T10:17:28;10.67;;;4.80;;
9906;SDS011;4992;51.628;6.664;2024-02-21T10:19:54;12.50;;;4.30;;
9906;SDS011;4992;51.628;6.664;2024-02-21T10:22:20;7.85;;;4.38;;
9906;SDS011;4992;51.628;6.664;2024-02-21T10:24:46;9.48;;;4.38;;
9906;SDS011;4992;51.628;6.664;2024-02-21T10:27:12;13.57;;;4.43;;
9906;SDS011;4992;51.628;6.664;2024-02-21T10:29:38;9.50;;;3.75;;
9906;SDS011;4992;51.628;6.664;2024-02-21T10:32:08;7.93;;;4.32;;
9906;SDS011;4992;51.628;6.664;2024-02-21T10:34:34;8.00;;;3.77;;
9906;SDS011;4992;51.628;6.664;2024-02-21T10:37:04;7.72;;;4.40;;
9906;SDS011;4992;51.628;6.664;2024-02-21T10:39:34;9.35;;;4.53;;
9906;SDS011;4992;51.628;6.664;2024-02-21T10:42:00;8.02;;;3.72;;
9906;SDS011;4992;51.628;6.664;2024-02-21T10:44:29;8.70;;;4.20;;
9906;SDS011;4992;51.628;6.664;2024-02-21T10:46:58;6.63;;;3.60;;
9906;SDS011;4992;51.628;6.664;2024-02-21T10:49:25;11.98;;;3.80;;
9906;SDS011;4992;51.628;6.664;2024-02-21T10:51:54;8.52;;;3.65;;
9906;SDS011;4992;51.628;6.664;2024-02-21T10:56:53;6.25;;;3.60;;
9906;SDS011;4992;51.628;6.664;2024-02-21T10:59:20;8.35;;;4.03;;
9906;SDS011;4992;51.628;6.664;2024-02-21T11:01:47;8.43;;;3.78;;
9906;SDS011;4992;51.628;6.664;2024-02-21T11:04:13;7.93;;;3.72;;
9906;SDS011;4992;51.628;6.664;2024-02-21T11:06:39;10.65;;;3.10;;
9906;SDS011;4992;51.628;6.664;2024-02-21T11:09:07;6.78;;;3.58;;
9906;SDS011;4992;51.628;6.664;2024-02-21T11:11:37;5.63;;;2.63;;
9906;SDS011;4992;51.628;6.664;2024-02-21T11:14:04;4.90;;;2.63;;
9906;SDS011;4992;51.628;6.664;2024-02-21T11:16:34;8.25;;;2.97;;
9906;SDS011;4992;51.628;6.664;2024-02-21T11:19:04;5.75;;;3.08;;
9906;SDS011;4992;51.628;6.664;2024-02-21T11:21:33;5.45;;;2.92;;
9906;SDS011;4992;51.628;6.664;2024-02-21T11:24:00;7.05;;;2.78;;
9906;SDS011;4992;51.628;6.664;2024-02-21T11:26:27;7.18;;;2.78;;
9906;SDS011;4992;51.628;6.664;2024-02-21T11:28:57;5.93;;;2.78;;
9906;SDS011;4992;51.628;6.664;2024-02-21T11:31:24;4.65;;;2.75;;
9906;SDS011;4992;51.628;6.664;2024-02-21T11:33:52;5.03;;;2.95;;
9906;SDS011;4992;51.628;6.664;2024-02-21T11:36:25;5.38;;;3.08;;
9906;SDS011;4992;51.628;6.664;2024-02-21T11:38:51;6.97;;;2.83;;
9906;SDS011;4992;51.628;6.664;2024-02-21T11:41:20;8.85;;;3.22;;
9906;SDS011;4992;51.628;6.664;2024-02-21T11:43:48;7.47;;;3.00;;
9906;SDS011;4992;51.628;6.664;2024-02-21T11:46:15;7.10;;;3.67;;
9906;SDS011;4992;51.628;6.664;2024-02-21T11:48:41;6.05;;;3.50;;
9906;SDS011;4992;51.628;6.664;2024-02-21T11:51:09;6.18;;;3.45;;
9906;SDS011;4992;51.628;6.664;2024-02-21T11:53:36;5.90;;;3.05;;
9906;SDS011;4992;51.628;6.664;2024-02-21T11:56:02;9.05;;;3.30;;
9906;SDS011;4992;51.628;6.664;2024-02-21T11:58:28;9.15;;;3.30;;
9906;SDS011;4992;51.628;6.664;2024-02-21T12:00:55;6.05;;;2.78;;
9906;SDS011;4992;51.628;6.664;2024-02-21T12:03:21;7.35;;;3.33;;
9906;SDS011;4992;51.628;6.664;2024-02-21T12:05:47;6.93;;;3.30;;
9906;SDS011;4992;51.628;6.664;2024-02-21T12:08:13;5.05;;;2.80;;
9906;SDS011;4992;51.628;6.664;2024-02-21T12:10:41;7.75;;;2.55;;
9906;SDS011;4992;51.628;6.664;2024-02-21T12:13:09;9.10;;;2.60;;
9906;SDS011;4992;51.628;6.664;2024-02-21T12:15:35;7.68;;;2.88;;
9906;SDS011;4992;51.628;6.664;2024-02-21T12:18:01;8.40;;;3.00;;
9906;SDS011;4992;51.628;6.664;2024-02-21T12:20:27;5.88;;;2.45;;
9906;SDS011;4992;51.628;6.664;2024-02-21T12:22:53;6.85;;;2.88;;
9906;SDS011;4992;51.628;6.664;2024-02-21T12:25:20;8.13;;;2.95;;
9906;SDS011;4992;51.628;6.664;2024-02-21T12:27:52;9.13;;;3.80;;
9906;SDS011;4992;51.628;6.664;2024-02-21T12:30:18;7.15;;;3.17;;
9906;SDS011;4992;51.628;6.664;2024-02-21T12:32:45;5.65;;;3.03;;
9906;SDS011;4992;51.628;6.664;2024-02-21T12:35:11;3.95;;;2.38;;
9906;SDS011;4992;51.628;6.664;2024-02-21T12:37:37;7.32;;;2.70;;
9906;SDS011;4992;51.628;6.664;2024-02-21T12:40:03;6.15;;;2.65;;
9906;SDS011;4992;51.628;6.664;2024-02-21T12:42:31;6.95;;;2.55;;
9906;SDS011;4992;51.628;6.664;2024-02-21T12:44:58;6.25;;;2.70;;
9906;SDS011;4992;51.628;6.664;2024-02-21T12:47:24;4.38;;;2.40;;
9906;SDS011;4992;51.628;6.664;2024-02-21T12:49:51;7.13;;;2.55;;
9906;SDS011;4992;51.628;6.664;2024-02-21T12:52:17;5.57;;;2.70;;
9906;SDS011;4992;51.628;6.664;2024-02-21T12:54:43;8.30;;;2.60;;
9906;SDS011;4992;51.628;6.664;2024-02-21T12:57:09;9.20;;;2.70;;
9906;SDS011;4992;51.628;6.664;2024-02-21T12:59:35;7.55;;;2.65;;
9906;SDS011;4992;51.628;6.664;2024-02-21T13:02:01;6.30;;;2.95;;
9906;SDS011;4992;51.628;6.664;2024-02-21T13:04:27;4.97;;;2.33;;
9906;SDS011;4992;51.628;6.664;2024-02-21T13:06:53;6.22;;;2.83;;
9906;SDS011;4992;51.628;6.664;2024-02-21T13:09:20;7.18;;;2.35;;
9906;SDS011;4992;51.628;6.664;2024-02-21T13:11:46;4.68;;;2.20;;
9906;SDS011;4992;51.628;6.664;2024-02-21T13:14:12;4.38;;;2.80;;
9906;SDS011;4992;51.628;6.664;2024-02-21T13:16:38;6.47;;;2.70;;
9906;SDS011;4992;51.628;6.664;2024-02-21T13:19:05;5.47;;;2.72;;
9906;SDS011;4992;51.628;6.664;2024-02-21T13:21:31;7.72;;;2.83;;
9906;SDS011;4992;51.628;6.664;2024-02-21T13:23:57;6.22;;;2.78;;
9906;SDS011;4992;51.628;6.664;2024-02-21T13:26:23;5.20;;;2.58;;
9906;SDS011;4992;51.628;6.664;2024-02-21T13:28:49;6.35;;;2.58;;
9906;SDS011;4992;51.628;6.664;2024-02-21T13:31:15;5.68;;;2.65;;
9906;SDS011;4992;51.628;6.664;2024-02-21T13:33:41;6.40;;;2.50;;
9906;SDS011;4992;51.628;6.664;2024-02-21T13:36:09;6.03;;;2.40;;
9906;SDS011;4992;51.628;6.664;2024-02-21T13:38:36;5.70;;;2.47;;
9906;SDS011;4992;51.628;6.664;2024-02-21T13:41:03;4.40;;;2.33;;
9906;SDS011;4992;51.628;6.664;2024-02-21T13:43:29;3.17;;;2.15;;
9906;SDS011;4992;51.628;6.664;2024-02-21T13:45:56;6.15;;;2.25;;
9906;SDS011;4992;51.628;6.664;2024-02-21T13:48:23;5.63;;;2.65;;
9906;SDS011;4992;51.628;6.664;2024-02-21T13:50:49;6.85;;;2.72;;
9906;SDS011;4992;51.628;6.664;2024-02-21T13:53:15;5.80;;;2.53;;
9906;SDS011;4992;51.628;6.664;2024-02-21T13:55:43;5.28;;;2.22;;
9906;SDS011;4992;51.628;6.664;2024-02-21T13:58:09;7.00;;;2.85;;
9906;SDS011;4992;51.628;6.664;2024-02-21T14:00:35;6.10;;;2.42;;
9906;SDS011;4992;51.628;6.664;2024-02-21T14:03:01;7.80;;;2.40;;
9906;SDS011;4992;51.628;6.664;2024-02-21T14:05:27;4.38;;;2.50;;
9906;SDS011;4992;51.628;6.664;2024-02-21T14:07:53;4.60;;;2.53;;
9906;SDS011;4992;51.628;6.664;2024-02-21T14:10:19;5.75;;;2.53;;
9906;SDS011;4992;51.628;6.664;2024-02-21T14:12:45;3.30;;;2.38;;
9906;SDS011;4992;51.628;6.664;2024-02-21T14:15:13;4.70;;;2.40;;
9906;SDS011;4992;51.628;6.664;2024-02-21T14:17:39;5.35;;;2.47;;
9906;SDS011;4992;51.628;6.664;2024-02-21T14:20:05;5.60;;;2.35;;
9906;SDS011;4992;51.628;6.664;2024-02-21T14:22:31;4.72;;;2.72;;
9906;SDS011;4992;51.628;6.664;2024-02-21T14:24:58;5.13;;;2.45;;
9906;SDS011;4992;51.628;6.664;2024-02-21T14:27:24;7.65;;;2.72;;
9906;SDS011;4992;51.628;6.664;2024-02-21T14:29:50;5.68;;;2.67;;
9906;SDS011;4992;51.628;6.664;2024-02-21T14:32:15;7.75;;;3.22;;
9906;SDS011;4992;51.628;6.664;2024-02-21T14:34:41;7.07;;;2.67;;
9906;SDS011;4992;51.628;6.664;2024-02-21T14:37:07;6.50;;;2.47;;
9906;SDS011;4992;51.628;6.664;2024-02-21T14:39:33;5.13;;;2.70;;
9906;SDS011;4992;51.628;6.664;2024-02-21T14:42:00;7.35;;;2.22;;
9906;SDS011;4992;51.628;6.664;2024-02-21T14:44:26;7.15;;;2.85;;
9906;SDS011;4992;51.628;6.664;2024-02-21T14:46:52;5.95;;;2.55;;
9906;SDS011;4992;51.628;6.664;2024-02-21T14:49:18;5.05;;;2.63;;
9906;SDS011;4992;51.628;6.664;2024-02-21T14:51:44;4.65;;;2.53;;
9906;SDS011;4992;51.628;6.664;2024-02-21T14:54:10;8.38;;;2.60;;
9906;SDS011;4992;51.628;6.664;2024-02-21T14:56:36;7.65;;;2.53;;
9906;SDS011;4992;51.628;6.664;2024-02-21T14:59:04;6.65;;;2.97;;
9906;SDS011;4992;51.628;6.664;2024-02-21T15:01:30;6.57;;;2.60;;